Ruso, North Dakota
Current Conditions -  °F | °C
As of 1:54 PM on Friday 31 Oct 2014 (Local Time) from KMOT Reporting Station
Clear Clear  
Wind Chill: 29°   Ceiling: Unl
Heat Index: 39°   Visibility: 10mi
Dew Point: 15°   Wind: 21mph
Humidity: 38%   Direction: 150°SSE
Pressure: 30.28"   Gusts: 30mph
Location:  47.84°N, 100.93°W
Report Text: KMOT 311854Z 15018G26KT 10SM CLR 04/M09 A3028 RMK AO2 PK WND 15029/1759 SLP280 T00391094
Loading
Personal Weather Stations






























Interactive Weather Map
Tropical Storm Tracking
New forecast layout! Learn more

10-Day Weather Forecast

Advertisements
Track Severe Weather on mobile